WZZ4D EDLW-LHBP
Flight info
| Callsign | WZZ4D |
|---|---|
| Flight time | N/A |
| Altitude | 37000 |
| Route | GMH8Q GMH Q603 TESGA DCT ESATI DCT BARSU DCT EKSOS DCT LULAR DCT RUDAP DCT BUDEX DCT MAREG L175 XENAK/N0356F230 L175 ANEXA |
| Aircraft | A320/M-SDE1E2E3FGIJ1J4RWXY/LB1 |
Departure
| Time | 2026-04-27 18:53 |
|---|---|
| Airport | Dortmund Airport (EDLW) |
Arrival
| Time | N/A |
|---|---|
| Airport | Budapest Liszt Ferenc International Airport (LHBP) |
| Time | Latitude | Longitude | Altitude | Speed | Heading |
|---|---|---|---|---|---|
| 2026-04-27 18:13 | 51.51472 | 7.61120 | 436 ft | 0 kts | 147° |
| 2026-04-27 18:45 | 51.51473 | 7.61118 | 436 ft | 2 kts | 147° |
| 2026-04-27 18:45 | 51.51487 | 7.61103 | 424 ft | 2 kts | 142° |
| 2026-04-27 18:46 | 51.51499 | 7.61086 | 422 ft | 2 kts | 130° |
| 2026-04-27 18:46 | 51.51508 | 7.61064 | 422 ft | 2 kts | 91° |
| 2026-04-27 18:46 | 51.51506 | 7.61039 | 420 ft | 1 kts | 60° |
| 2026-04-27 18:46 | 51.51503 | 7.61033 | 422 ft | 0 kts | 59° |
| 2026-04-27 18:49 | 51.51507 | 7.61042 | 420 ft | 4 kts | 53° |
| 2026-04-27 18:49 | 51.51553 | 7.61053 | 431 ft | 10 kts | 339° |
| 2026-04-27 18:50 | 51.51566 | 7.60982 | 423 ft | 9 kts | 246° |
| 2026-04-27 18:50 | 51.51552 | 7.60940 | 418 ft | 4 kts | 241° |
| 2026-04-27 18:50 | 51.51526 | 7.60866 | 421 ft | 10 kts | 240° |
| 2026-04-27 18:50 | 51.51482 | 7.60739 | 419 ft | 15 kts | 240° |
| 2026-04-27 18:51 | 51.51428 | 7.60586 | 421 ft | 16 kts | 241° |
| 2026-04-27 18:51 | 51.51374 | 7.60434 | 419 ft | 10 kts | 240° |
| 2026-04-27 18:51 | 51.51363 | 7.60332 | 425 ft | 9 kts | 286° |
| 2026-04-27 18:51 | 51.51422 | 7.60254 | 425 ft | 14 kts | 333° |
| 2026-04-27 18:52 | 51.51493 | 7.60271 | 422 ft | 1 kts | 38° |
| 2026-04-27 18:52 | 51.51520 | 7.60340 | 423 ft | 19 kts | 60° |
| 2026-04-27 18:52 | 51.51721 | 7.60909 | 416 ft | 94 kts | 60° |
| 2026-04-27 18:53 | 51.52645 | 7.63541 | 1009 ft | 149 kts | 62° |
| 2026-04-27 18:53 | 51.53140 | 7.64985 | 1723 ft | 146 kts | 62° |
| 2026-04-27 18:53 | 51.53658 | 7.66457 | 2103 ft | 161 kts | 61° |
| 2026-04-27 18:53 | 51.54248 | 7.68123 | 2347 ft | 183 kts | 61° |
| 2026-04-27 18:54 | 51.54921 | 7.70016 | 2609 ft | 208 kts | 61° |
| 2026-04-27 18:54 | 51.55679 | 7.72151 | 2993 ft | 232 kts | 63° |
| 2026-04-27 18:54 | 51.56124 | 7.74708 | 3511 ft | 248 kts | 95° |
| 2026-04-27 18:54 | 51.55476 | 7.77281 | 4305 ft | 255 kts | 131° |
| 2026-04-27 18:55 | 51.54055 | 7.79015 | 5158 ft | 261 kts | 153° |
| 2026-04-27 18:55 | 51.52286 | 7.79685 | 5939 ft | 268 kts | 185° |
| 2026-04-27 18:55 | 51.50480 | 7.78864 | 6740 ft | 274 kts | 206° |
| 2026-04-27 18:55 | 51.48791 | 7.77595 | 7540 ft | 278 kts | 204° |
| 2026-04-27 18:56 | 51.46983 | 7.76447 | 8401 ft | 281 kts | 202° |
| 2026-04-27 18:56 | 51.45118 | 7.75433 | 9256 ft | 285 kts | 194° |
| 2026-04-27 18:56 | 51.43132 | 7.75129 | 10082 ft | 290 kts | 178° |
| 2026-04-27 18:56 | 51.41105 | 7.75656 | 10584 ft | 307 kts | 164° |
| 2026-04-27 18:57 | 51.39020 | 7.76830 | 10835 ft | 328 kts | 161° |
| 2026-04-27 18:57 | 51.36843 | 7.78074 | 11435 ft | 335 kts | 162° |
| 2026-04-27 18:57 | 51.34630 | 7.79333 | 12130 ft | 340 kts | 162° |
| 2026-04-27 18:57 | 51.32390 | 7.80596 | 12844 ft | 343 kts | 163° |
| 2026-04-27 18:58 | 51.30127 | 7.81871 | 13131 ft | 345 kts | 162° |
| 2026-04-27 18:58 | 51.27862 | 7.83147 | 13201 ft | 345 kts | 162° |
| 2026-04-27 18:58 | 51.25597 | 7.84421 | 13206 ft | 345 kts | 163° |
| 2026-04-27 18:58 | 51.23317 | 7.85699 | 13824 ft | 349 kts | 163° |
| 2026-04-27 18:59 | 51.21019 | 7.86981 | 14481 ft | 351 kts | 163° |
| 2026-04-27 18:59 | 51.18701 | 7.88273 | 15085 ft | 355 kts | 163° |
| 2026-04-27 18:59 | 51.16448 | 7.89837 | 15650 ft | 362 kts | 153° |
| 2026-04-27 18:59 | 51.14298 | 7.91982 | 16224 ft | 367 kts | 150° |
| 2026-04-27 19:00 | 51.12113 | 7.94224 | 16814 ft | 371 kts | 150° |
| 2026-04-27 19:00 | 51.09932 | 7.96458 | 17413 ft | 375 kts | 150° |
| 2026-04-27 19:00 | 51.07753 | 7.98681 | 17971 ft | 379 kts | 150° |
| 2026-04-27 19:00 | 51.05520 | 8.00947 | 18529 ft | 383 kts | 151° |
| 2026-04-27 19:01 | 51.03259 | 8.03237 | 18991 ft | 387 kts | 151° |
| 2026-04-27 19:01 | 51.00984 | 8.05540 | 19149 ft | 389 kts | 151° |
| 2026-04-27 19:01 | 50.98704 | 8.07851 | 19192 ft | 389 kts | 151° |
| 2026-04-27 19:01 | 50.96418 | 8.10161 | 19192 ft | 389 kts | 151° |
| 2026-04-27 19:02 | 50.94136 | 8.12463 | 19319 ft | 392 kts | 151° |
| 2026-04-27 19:02 | 50.91828 | 8.14783 | 19899 ft | 394 kts | 152° |
| 2026-04-27 19:02 | 50.89504 | 8.17119 | 20445 ft | 397 kts | 152° |
| 2026-04-27 19:02 | 50.87161 | 8.19472 | 20958 ft | 400 kts | 152° |
| 2026-04-27 19:03 | 50.84801 | 8.21839 | 21439 ft | 404 kts | 152° |
| 2026-04-27 19:03 | 50.82421 | 8.24223 | 21927 ft | 407 kts | 152° |
| 2026-04-27 19:03 | 50.80021 | 8.26626 | 22400 ft | 410 kts | 152° |
| 2026-04-27 19:03 | 50.78391 | 8.28257 | 22725 ft | 412 kts | 152° |
| 2026-04-27 19:04 | 50.75168 | 8.31477 | 23361 ft | 416 kts | 152° |
| 2026-04-27 19:04 | 50.72679 | 8.33963 | 23834 ft | 419 kts | 153° |
| 2026-04-27 19:04 | 50.70238 | 8.36396 | 24225 ft | 422 kts | 153° |
| 2026-04-27 19:04 | 50.67905 | 8.38717 | 24596 ft | 425 kts | 153° |
| 2026-04-27 19:05 | 50.65402 | 8.41207 | 24988 ft | 427 kts | 153° |
| 2026-04-27 19:05 | 50.62878 | 8.43719 | 25360 ft | 431 kts | 153° |
| 2026-04-27 19:05 | 50.60332 | 8.46243 | 25732 ft | 433 kts | 153° |
| 2026-04-27 19:05 | 50.57771 | 8.48772 | 26115 ft | 436 kts | 153° |
| 2026-04-27 19:06 | 50.55192 | 8.51316 | 26498 ft | 438 kts | 153° |
| 2026-04-27 19:06 | 50.52606 | 8.53867 | 26902 ft | 440 kts | 153° |
| 2026-04-27 19:06 | 50.50003 | 8.56432 | 27276 ft | 442 kts | 153° |
| 2026-04-27 19:06 | 50.47391 | 8.59005 | 27656 ft | 445 kts | 153° |
| 2026-04-27 19:07 | 50.44764 | 8.61742 | 28027 ft | 451 kts | 147° |
| 2026-04-27 19:07 | 50.42422 | 8.64970 | 28378 ft | 458 kts | 141° |
| 2026-04-27 19:07 | 50.40099 | 8.68499 | 28740 ft | 461 kts | 141° |
| 2026-04-27 19:07 | 50.37782 | 8.72002 | 29097 ft | 463 kts | 141° |
| 2026-04-27 19:08 | 50.35640 | 8.75232 | 29417 ft | 465 kts | 141° |
| 2026-04-27 19:08 | 50.33386 | 8.78624 | 29772 ft | 468 kts | 141° |
| 2026-04-27 19:08 | 50.31009 | 8.82193 | 30084 ft | 471 kts | 141° |
| 2026-04-27 19:08 | 50.28651 | 8.85730 | 30479 ft | 471 kts | 141° |
| 2026-04-27 19:09 | 50.26278 | 8.89283 | 30797 ft | 473 kts | 141° |
| 2026-04-27 19:09 | 50.23893 | 8.92850 | 31098 ft | 476 kts | 141° |
| 2026-04-27 19:09 | 50.21497 | 8.96427 | 31440 ft | 477 kts | 141° |
| 2026-04-27 19:09 | 50.19097 | 9.00002 | 31870 ft | 476 kts | 141° |
| 2026-04-27 19:10 | 50.16700 | 9.03563 | 32288 ft | 476 kts | 141° |
| 2026-04-27 19:10 | 50.14303 | 9.07120 | 32701 ft | 476 kts | 141° |
| 2026-04-27 19:10 | 50.11908 | 9.10682 | 33109 ft | 476 kts | 141° |
| 2026-04-27 19:10 | 50.10354 | 9.13096 | 33359 ft | 479 kts | 137° |
| 2026-04-27 19:11 | 50.07683 | 9.18715 | 33899 ft | 487 kts | 123° |
| 2026-04-27 19:11 | 50.06205 | 9.23476 | 34259 ft | 491 kts | 112° |
| 2026-04-27 19:11 | 50.05239 | 9.28584 | 34589 ft | 493 kts | 102° |
| 2026-04-27 19:11 | 50.04644 | 9.33835 | 34939 ft | 493 kts | 100° |
| 2026-04-27 19:12 | 50.04054 | 9.39083 | 35302 ft | 491 kts | 101° |
| 2026-04-27 19:12 | 50.03424 | 9.44294 | 35657 ft | 490 kts | 105° |
| 2026-04-27 19:12 | 50.02554 | 9.49395 | 36006 ft | 488 kts | 106° |
| 2026-04-27 19:12 | 50.01640 | 9.54466 | 36363 ft | 486 kts | 107° |
| 2026-04-27 19:13 | 50.00698 | 9.59511 | 36708 ft | 485 kts | 107° |
| 2026-04-27 19:13 | 49.99747 | 9.64522 | 37055 ft | 483 kts | 107° |
| 2026-04-27 19:13 | 49.98794 | 9.69525 | 37161 ft | 483 kts | 107° |
| 2026-04-27 19:14 | 49.96902 | 9.79521 | 37174 ft | 482 kts | 107° |
| 2026-04-27 19:14 | 49.95034 | 9.89509 | 37183 ft | 481 kts | 107° |
| 2026-04-27 19:15 | 49.93161 | 9.99481 | 37182 ft | 481 kts | 107° |
| 2026-04-27 19:15 | 49.91272 | 10.09447 | 37183 ft | 482 kts | 107° |
| 2026-04-27 19:16 | 49.89373 | 10.19417 | 37190 ft | 482 kts | 107° |
| 2026-04-27 19:16 | 49.87459 | 10.29380 | 37199 ft | 482 kts | 107° |
| 2026-04-27 19:17 | 49.85539 | 10.39338 | 37201 ft | 482 kts | 107° |
| 2026-04-27 19:17 | 49.83620 | 10.49218 | 37207 ft | 482 kts | 107° |
| 2026-04-27 19:18 | 49.81685 | 10.59171 | 37204 ft | 482 kts | 107° |
| 2026-04-27 19:18 | 49.79746 | 10.69103 | 37204 ft | 482 kts | 107° |
| 2026-04-27 19:19 | 49.77780 | 10.79103 | 37203 ft | 482 kts | 107° |
| 2026-04-27 19:19 | 49.75835 | 10.88951 | 37199 ft | 482 kts | 107° |
| 2026-04-27 19:20 | 49.73865 | 10.98860 | 37197 ft | 482 kts | 107° |
| 2026-04-27 19:20 | 49.71887 | 11.08751 | 37192 ft | 482 kts | 107° |
| 2026-04-27 19:21 | 49.69899 | 11.18626 | 37192 ft | 481 kts | 107° |
| 2026-04-27 19:21 | 49.67909 | 11.28497 | 37197 ft | 481 kts | 107° |
| 2026-04-27 19:22 | 49.65909 | 11.38347 | 37202 ft | 481 kts | 108° |
| 2026-04-27 19:22 | 49.63893 | 11.48199 | 37192 ft | 481 kts | 108° |
| 2026-04-27 19:23 | 49.61852 | 11.58014 | 37186 ft | 481 kts | 108° |
| 2026-04-27 19:23 | 49.59797 | 11.67820 | 37160 ft | 480 kts | 108° |
| 2026-04-27 19:24 | 49.57740 | 11.77614 | 37171 ft | 480 kts | 108° |
| 2026-04-27 19:24 | 49.55678 | 11.87397 | 37176 ft | 480 kts | 108° |
| 2026-04-27 19:25 | 49.53615 | 11.97158 | 37175 ft | 480 kts | 108° |
| 2026-04-27 19:25 | 49.51540 | 12.06917 | 37176 ft | 480 kts | 108° |
| 2026-04-27 19:26 | 49.49458 | 12.16670 | 37194 ft | 480 kts | 108° |
| 2026-04-27 19:26 | 49.47719 | 12.24770 | 37198 ft | 480 kts | 108° |
| 2026-04-27 19:27 | 49.45620 | 12.34491 | 37191 ft | 479 kts | 108° |
| 2026-04-27 19:27 | 49.43520 | 12.44207 | 37186 ft | 479 kts | 108° |
| 2026-04-27 19:28 | 49.41410 | 12.53911 | 37185 ft | 479 kts | 108° |
| 2026-04-27 19:28 | 49.39287 | 12.63604 | 37193 ft | 479 kts | 108° |
| 2026-04-27 19:29 | 49.37155 | 12.73296 | 37194 ft | 479 kts | 108° |
| 2026-04-27 19:29 | 49.34950 | 12.82941 | 37191 ft | 479 kts | 110° |
| 2026-04-27 19:30 | 49.32583 | 12.92491 | 37194 ft | 479 kts | 111° |
| 2026-04-27 19:30 | 49.30187 | 13.02028 | 37195 ft | 479 kts | 111° |
| 2026-04-27 19:31 | 49.27821 | 13.11568 | 37195 ft | 479 kts | 110° |
| 2026-04-27 19:31 | 49.25469 | 13.21119 | 37198 ft | 479 kts | 110° |
| 2026-04-27 19:32 | 49.23086 | 13.30649 | 37196 ft | 479 kts | 111° |
| 2026-04-27 19:32 | 49.20564 | 13.40078 | 37203 ft | 479 kts | 112° |
| 2026-04-27 19:33 | 49.17982 | 13.49474 | 37201 ft | 479 kts | 112° |
| 2026-04-27 19:33 | 49.15415 | 13.58870 | 37186 ft | 479 kts | 112° |
| 2026-04-27 19:34 | 49.12861 | 13.68270 | 37190 ft | 479 kts | 112° |
| 2026-04-27 19:34 | 49.10305 | 13.77667 | 37197 ft | 479 kts | 112° |
| 2026-04-27 19:35 | 49.07736 | 13.87048 | 37202 ft | 479 kts | 112° |
| 2026-04-27 19:35 | 49.05157 | 13.96410 | 37201 ft | 479 kts | 112° |
| 2026-04-27 19:36 | 49.02577 | 14.05769 | 37203 ft | 479 kts | 112° |
| 2026-04-27 19:36 | 48.99989 | 14.15114 | 37195 ft | 479 kts | 113° |
| 2026-04-27 19:37 | 48.97387 | 14.24445 | 37203 ft | 479 kts | 113° |
| 2026-04-27 19:37 | 48.94782 | 14.33759 | 37198 ft | 478 kts | 113° |
| 2026-04-27 19:38 | 48.92210 | 14.43081 | 37199 ft | 478 kts | 112° |
| 2026-04-27 19:38 | 48.89677 | 14.52419 | 37203 ft | 477 kts | 112° |
| 2026-04-27 19:39 | 48.87141 | 14.61731 | 37204 ft | 477 kts | 112° |
| 2026-04-27 19:39 | 48.84573 | 14.71025 | 37196 ft | 477 kts | 112° |
| 2026-04-27 19:40 | 48.82000 | 14.80289 | 37196 ft | 476 kts | 112° |
| 2026-04-27 19:40 | 48.79416 | 14.89541 | 37196 ft | 476 kts | 113° |
| 2026-04-27 19:41 | 48.76829 | 14.98793 | 37194 ft | 477 kts | 112° |
| 2026-04-27 19:41 | 48.74243 | 15.08038 | 37186 ft | 477 kts | 112° |
| 2026-04-27 19:42 | 48.71647 | 15.17290 | 37185 ft | 477 kts | 112° |
| 2026-04-27 19:42 | 48.69037 | 15.26523 | 37185 ft | 477 kts | 113° |
| 2026-04-27 19:43 | 48.66415 | 15.35748 | 37181 ft | 477 kts | 113° |
| 2026-04-27 19:43 | 48.63791 | 15.44964 | 37189 ft | 477 kts | 113° |
| 2026-04-27 19:44 | 48.61168 | 15.54160 | 37189 ft | 477 kts | 113° |
| 2026-04-27 19:44 | 48.58538 | 15.63302 | 37189 ft | 476 kts | 113° |
| 2026-04-27 19:45 | 48.55913 | 15.72402 | 37189 ft | 476 kts | 113° |
| 2026-04-27 19:45 | 48.53249 | 15.81619 | 37194 ft | 476 kts | 113° |
| 2026-04-27 19:46 | 48.50625 | 15.90695 | 37093 ft | 476 kts | 113° |
| 2026-04-27 19:46 | 48.49298 | 15.95260 | 36830 ft | 474 kts | 113° |
| 2026-04-27 19:46 | 48.47970 | 15.99807 | 36563 ft | 474 kts | 113° |
| 2026-04-27 19:46 | 48.46636 | 16.04357 | 36305 ft | 475 kts | 114° |
| 2026-04-27 19:47 | 48.45302 | 16.08899 | 36047 ft | 474 kts | 114° |
| 2026-04-27 19:47 | 48.43969 | 16.13439 | 35794 ft | 473 kts | 113° |
| 2026-04-27 19:47 | 48.42643 | 16.17958 | 35543 ft | 471 kts | 113° |
| 2026-04-27 19:47 | 48.41319 | 16.22461 | 35292 ft | 470 kts | 113° |
| 2026-04-27 19:48 | 48.40016 | 16.26899 | 35048 ft | 468 kts | 113° |
| 2026-04-27 19:48 | 48.38701 | 16.31371 | 34803 ft | 466 kts | 113° |
| 2026-04-27 19:48 | 48.37384 | 16.35820 | 34563 ft | 465 kts | 114° |
| 2026-04-27 19:48 | 48.36065 | 16.40246 | 34324 ft | 463 kts | 114° |
| 2026-04-27 19:49 | 48.34749 | 16.44652 | 34059 ft | 461 kts | 113° |
| 2026-04-27 19:49 | 48.33571 | 16.49119 | 33822 ft | 459 kts | 109° |
| 2026-04-27 19:49 | 48.32493 | 16.53623 | 33480 ft | 456 kts | 108° |
| 2026-04-27 19:49 | 48.31461 | 16.58114 | 33076 ft | 452 kts | 108° |
| 2026-04-27 19:50 | 48.30454 | 16.62579 | 32684 ft | 450 kts | 108° |
| 2026-04-27 19:50 | 48.29455 | 16.67006 | 32283 ft | 447 kts | 108° |
| 2026-04-27 19:50 | 48.28450 | 16.71407 | 31893 ft | 444 kts | 108° |
| 2026-04-27 19:50 | 48.27444 | 16.75763 | 31513 ft | 441 kts | 108° |
| 2026-04-27 19:51 | 48.26435 | 16.80096 | 31131 ft | 438 kts | 108° |
| 2026-04-27 19:51 | 48.25427 | 16.84398 | 30758 ft | 435 kts | 109° |
| 2026-04-27 19:51 | 48.24423 | 16.88663 | 30394 ft | 433 kts | 109° |
| 2026-04-27 19:51 | 48.23421 | 16.92907 | 29997 ft | 430 kts | 109° |
| 2026-04-27 19:52 | 48.22420 | 16.97115 | 29568 ft | 427 kts | 111° |
| 2026-04-27 19:52 | 48.21075 | 17.01057 | 29237 ft | 425 kts | 121° |
| 2026-04-27 19:52 | 48.19580 | 17.04869 | 28832 ft | 423 kts | 121° |
| 2026-04-27 19:52 | 48.18086 | 17.08647 | 28421 ft | 420 kts | 121° |
| 2026-04-27 19:53 | 48.15111 | 17.16126 | 27621 ft | 415 kts | 121° |
| 2026-04-27 19:53 | 48.13636 | 17.19834 | 27222 ft | 413 kts | 121° |
| 2026-04-27 19:53 | 48.12173 | 17.23518 | 26843 ft | 410 kts | 121° |
| 2026-04-27 19:54 | 48.10718 | 17.27176 | 26467 ft | 408 kts | 121° |
| 2026-04-27 19:54 | 48.09267 | 17.30810 | 26099 ft | 406 kts | 121° |
| 2026-04-27 19:54 | 48.07819 | 17.34421 | 25725 ft | 404 kts | 121° |
| 2026-04-27 19:54 | 48.06377 | 17.38009 | 25356 ft | 401 kts | 121° |
| 2026-04-27 19:55 | 48.04945 | 17.41575 | 24993 ft | 399 kts | 121° |
| 2026-04-27 19:55 | 48.03525 | 17.45120 | 24622 ft | 396 kts | 121° |
| 2026-04-27 19:55 | 48.02112 | 17.48640 | 24256 ft | 393 kts | 121° |
| 2026-04-27 19:55 | 48.00708 | 17.52128 | 23872 ft | 391 kts | 121° |
| 2026-04-27 19:56 | 47.99307 | 17.55599 | 23453 ft | 389 kts | 121° |
| 2026-04-27 19:56 | 47.97920 | 17.59040 | 23028 ft | 386 kts | 121° |
| 2026-04-27 19:56 | 47.96544 | 17.62459 | 22623 ft | 383 kts | 121° |
| 2026-04-27 19:56 | 47.95179 | 17.65850 | 22233 ft | 380 kts | 121° |
| 2026-04-27 19:57 | 47.93821 | 17.69209 | 21829 ft | 377 kts | 121° |
| 2026-04-27 19:57 | 47.92469 | 17.72547 | 21435 ft | 374 kts | 121° |
| 2026-04-27 19:57 | 47.91128 | 17.75851 | 21043 ft | 371 kts | 121° |
| 2026-04-27 19:57 | 47.89797 | 17.79123 | 20670 ft | 368 kts | 121° |
| 2026-04-27 19:58 | 47.88477 | 17.82367 | 20289 ft | 365 kts | 121° |
| 2026-04-27 19:58 | 47.87164 | 17.85588 | 19926 ft | 362 kts | 122° |
| 2026-04-27 19:58 | 47.85862 | 17.88779 | 19572 ft | 360 kts | 122° |
| 2026-04-27 19:58 | 47.84564 | 17.91952 | 19219 ft | 357 kts | 122° |
| 2026-04-27 19:59 | 47.83276 | 17.95099 | 18872 ft | 355 kts | 122° |
| 2026-04-27 19:59 | 47.81998 | 17.98226 | 18527 ft | 352 kts | 122° |
| 2026-04-27 19:59 | 47.80729 | 18.01330 | 18145 ft | 351 kts | 121° |
| 2026-04-27 19:59 | 47.79463 | 18.04423 | 17738 ft | 349 kts | 121° |
| 2026-04-27 20:00 | 47.78202 | 18.07499 | 17351 ft | 348 kts | 121° |
| 2026-04-27 20:00 | 47.76943 | 18.10562 | 16966 ft | 346 kts | 121° |
| 2026-04-27 20:00 | 47.75689 | 18.13604 | 16594 ft | 344 kts | 121° |
| 2026-04-27 20:00 | 47.74439 | 18.16631 | 16230 ft | 343 kts | 121° |
| 2026-04-27 20:01 | 47.73196 | 18.19645 | 15874 ft | 341 kts | 121° |
| 2026-04-27 20:01 | 47.71959 | 18.22639 | 15523 ft | 340 kts | 121° |
| 2026-04-27 20:01 | 47.70723 | 18.25624 | 15180 ft | 338 kts | 121° |
| 2026-04-27 20:01 | 47.69491 | 18.28594 | 14837 ft | 337 kts | 121° |
| 2026-04-27 20:02 | 47.68266 | 18.31550 | 14502 ft | 336 kts | 121° |
| 2026-04-27 20:02 | 47.67046 | 18.34491 | 14173 ft | 334 kts | 121° |
| 2026-04-27 20:02 | 47.65829 | 18.37419 | 13840 ft | 333 kts | 121° |
| 2026-04-27 20:02 | 47.64606 | 18.40362 | 13156 ft | 341 kts | 121° |
| 2026-04-27 20:03 | 47.63350 | 18.43387 | 12585 ft | 346 kts | 121° |
| 2026-04-27 20:03 | 47.62091 | 18.46419 | 12155 ft | 345 kts | 121° |
| 2026-04-27 20:03 | 47.60837 | 18.49431 | 11779 ft | 342 kts | 121° |
| 2026-04-27 20:03 | 47.59594 | 18.52404 | 11543 ft | 335 kts | 121° |
| 2026-04-27 20:04 | 47.58386 | 18.55291 | 11417 ft | 325 kts | 121° |
| 2026-04-27 20:04 | 47.57211 | 18.58100 | 11217 ft | 318 kts | 121° |
| 2026-04-27 20:04 | 47.56052 | 18.60869 | 10925 ft | 315 kts | 121° |
| 2026-04-27 20:04 | 47.55291 | 18.62683 | 10716 ft | 314 kts | 121° |
| 2026-04-27 20:05 | 47.53772 | 18.66304 | 10303 ft | 311 kts | 121° |
| 2026-04-27 20:05 | 47.52630 | 18.69016 | 9992 ft | 310 kts | 121° |
| 2026-04-27 20:05 | 47.51493 | 18.71713 | 9646 ft | 308 kts | 121° |
| 2026-04-27 20:05 | 47.50364 | 18.74394 | 9322 ft | 306 kts | 121° |
| 2026-04-27 20:06 | 47.49243 | 18.77056 | 9002 ft | 304 kts | 121° |
| 2026-04-27 20:06 | 47.48133 | 18.79693 | 8696 ft | 301 kts | 121° |
| 2026-04-27 20:06 | 47.47030 | 18.82309 | 8390 ft | 299 kts | 121° |
| 2026-04-27 20:06 | 47.45932 | 18.84913 | 8095 ft | 297 kts | 121° |
| 2026-04-27 20:07 | 47.44843 | 18.87486 | 7981 ft | 295 kts | 121° |
| 2026-04-27 20:07 | 47.43755 | 18.90057 | 7998 ft | 296 kts | 121° |
| 2026-04-27 20:07 | 47.42661 | 18.92636 | 8008 ft | 296 kts | 121° |
| 2026-04-27 20:07 | 47.41566 | 18.95214 | 8001 ft | 296 kts | 121° |
| 2026-04-27 20:08 | 47.40472 | 18.97787 | 8005 ft | 296 kts | 121° |
| 2026-04-27 20:08 | 47.39377 | 19.00368 | 8003 ft | 296 kts | 121° |
| 2026-04-27 20:08 | 47.38283 | 19.02943 | 7943 ft | 295 kts | 121° |
| 2026-04-27 20:08 | 47.37198 | 19.05493 | 7656 ft | 292 kts | 121° |
| 2026-04-27 20:09 | 47.36125 | 19.08018 | 7360 ft | 290 kts | 121° |
| 2026-04-27 20:09 | 47.35058 | 19.10524 | 7066 ft | 287 kts | 121° |
| 2026-04-27 20:09 | 47.34356 | 19.12170 | 6875 ft | 286 kts | 121° |
| 2026-04-27 20:09 | 47.32946 | 19.15468 | 6480 ft | 283 kts | 121° |
| 2026-04-27 20:10 | 47.32252 | 19.17089 | 6278 ft | 281 kts | 121° |
| 2026-04-27 20:10 | 47.31211 | 19.19520 | 5962 ft | 279 kts | 121° |
| 2026-04-27 20:10 | 47.30176 | 19.21933 | 5654 ft | 277 kts | 121° |
| 2026-04-27 20:10 | 47.29149 | 19.24327 | 5343 ft | 276 kts | 121° |
| 2026-04-27 20:11 | 47.28129 | 19.26708 | 5035 ft | 274 kts | 121° |
| 2026-04-27 20:11 | 47.27112 | 19.29069 | 4712 ft | 272 kts | 122° |
| 2026-04-27 20:11 | 47.26101 | 19.31415 | 4405 ft | 271 kts | 122° |
| 2026-04-27 20:11 | 47.25098 | 19.33748 | 4162 ft | 266 kts | 122° |
| 2026-04-27 20:12 | 47.24125 | 19.36015 | 4031 ft | 258 kts | 120° |
| 2026-04-27 20:12 | 47.23528 | 19.38428 | 3899 ft | 248 kts | 97° |
| 2026-04-27 20:12 | 47.23642 | 19.40904 | 3710 ft | 241 kts | 73° |
| 2026-04-27 20:12 | 47.24405 | 19.43060 | 3462 ft | 236 kts | 49° |
| 2026-04-27 20:13 | 47.25567 | 19.44694 | 3332 ft | 226 kts | 41° |
| 2026-04-27 20:13 | 47.26709 | 19.46221 | 3207 ft | 218 kts | 41° |
| 2026-04-27 20:13 | 47.27803 | 19.47694 | 3095 ft | 208 kts | 41° |
| 2026-04-27 20:13 | 47.29012 | 19.48662 | 3020 ft | 195 kts | 8° |
| 2026-04-27 20:14 | 47.30306 | 19.48383 | 2992 ft | 189 kts | 331° |
| 2026-04-27 20:14 | 47.31279 | 19.47120 | 2999 ft | 187 kts | 311° |
| 2026-04-27 20:14 | 47.32156 | 19.45700 | 2997 ft | 187 kts | 311° |
| 2026-04-27 20:14 | 47.33033 | 19.44286 | 2991 ft | 187 kts | 312° |
| 2026-04-27 20:15 | 47.33910 | 19.42877 | 2842 ft | 185 kts | 311° |
| 2026-04-27 20:15 | 47.34777 | 19.41484 | 2631 ft | 184 kts | 311° |
| 2026-04-27 20:15 | 47.35639 | 19.40099 | 2390 ft | 179 kts | 311° |
| 2026-04-27 20:15 | 47.36426 | 19.38836 | 2172 ft | 156 kts | 311° |
| 2026-04-27 20:16 | 47.37127 | 19.37709 | 1958 ft | 144 kts | 311° |